createdAt,value
2019-04-22T00:03:08.983Z,59.55
2019-04-22T00:05:58.865Z,63.25
2019-04-22T00:08:37.654Z,61.70
2019-04-22T00:11:14.433Z,62.20
2019-04-22T00:13:40.683Z,62.17
2019-04-22T00:16:07.420Z,61.92
2019-04-22T00:18:54.771Z,56.63
2019-04-22T00:21:19.489Z,68.07
2019-04-22T00:23:46.812Z,66.22
2019-04-22T00:26:24.599Z,65.42
2019-04-22T00:31:24.747Z,58.28
2019-04-22T00:33:59.198Z,62.03
2019-04-22T00:36:27.595Z,55.70
2019-04-22T00:39:07.094Z,54.40
2019-04-22T00:41:35.934Z,79.22
2019-04-22T00:44:15.715Z,69.22
2019-04-22T00:46:46.166Z,59.00
2019-04-22T00:51:52.607Z,62.53
2019-04-22T00:54:17.081Z,67.97
2019-04-22T00:56:47.701Z,242.57
2019-04-22T00:59:23.331Z,68.15
2019-04-22T01:01:53.967Z,62.40
2019-04-22T01:04:35.106Z,71.50
2019-04-22T01:07:00.748Z,61.85
2019-04-22T01:09:43.249Z,70.67
2019-04-22T01:12:07.314Z,61.73
2019-04-22T01:14:41.454Z,61.02
2019-04-22T01:17:11.618Z,65.60
2019-04-22T01:19:52.290Z,74.82
2019-04-22T01:22:17.339Z,65.42
2019-04-22T01:24:48.114Z,61.70
2019-04-22T01:27:11.705Z,69.92
2019-04-22T01:29:46.560Z,65.65
2019-04-22T01:32:13.209Z,77.37
2019-04-22T01:34:52.704Z,79.07
2019-04-22T01:37:31.542Z,64.62
2019-04-22T01:40:14.853Z,69.12
2019-04-22T01:42:47.324Z,61.50
2019-04-22T01:45:14.238Z,64.90
2019-04-22T01:47:43.492Z,70.28
2019-04-22T01:50:12.142Z,63.40
2019-04-22T01:52:57.084Z,63.73
2019-04-22T01:55:27.729Z,61.68
2019-04-22T01:57:48.408Z,59.05
2019-04-22T02:00:18.993Z,59.93
2019-04-22T02:02:57.494Z,61.50
2019-04-22T02:05:28.659Z,58.73
2019-04-22T02:08:08.529Z,63.78
2019-04-22T02:10:40.693Z,62.50
2019-04-22T02:13:06.880Z,59.85
2019-04-22T02:15:39.642Z,67.75
2019-04-22T02:18:18.576Z,66.12
2019-04-22T02:20:43.248Z,57.35
2019-04-22T02:26:03.951Z,57.53
2019-04-22T02:28:38.361Z,62.43
2019-04-22T02:34:01.050Z,66.05
2019-04-22T02:38:59.441Z,61.00
2019-04-22T02:51:28.246Z,53.60
2019-04-22T03:01:41.168Z,62.38
2019-04-22T03:06:39.770Z,65.57
2019-04-22T03:09:18.569Z,63.52
2019-04-22T03:11:59.337Z,63.33
2019-04-22T03:16:51.100Z,56.48
2019-04-22T03:19:35.961Z,54.38
2019-04-22T03:27:00.780Z,68.15
2019-04-22T03:29:48.581Z,71.50
2019-04-22T03:37:32.281Z,48.48
2019-04-22T03:40:00.042Z,45.75
2019-04-22T03:42:10.018Z,44.38
2019-04-22T03:47:31.451Z,52.60
2019-04-22T03:52:25.057Z,54.15
2019-04-22T03:55:05.566Z,50.40
2019-04-22T03:57:50.072Z,51.85
2019-04-22T04:00:21.710Z,46.25
2019-04-22T04:02:48.345Z,52.53
2019-04-22T04:05:10.822Z,55.52
2019-04-22T04:07:47.795Z,46.33
2019-04-22T04:10:37.772Z,46.15
2019-04-22T04:15:28.414Z,46.02
2019-04-22T04:17:53.972Z,46.63
2019-04-22T04:23:08.339Z,44.27
2019-04-22T04:28:26.759Z,42.17
2019-04-22T04:33:04.998Z,45.50
2019-04-22T04:35:46.211Z,46.88
2019-04-22T04:37:58.779Z,41.68
2019-04-22T04:40:41.576Z,41.85
2019-04-22T04:48:21.008Z,50.55
2019-04-22T04:51:04.789Z,43.45
2019-04-22T04:53:20.303Z,44.55
2019-04-22T04:55:51.707Z,46.68
2019-04-22T04:58:44.182Z,49.42
2019-04-22T05:03:43.443Z,44.35
2019-04-22T05:06:07.492Z,43.75
2019-04-22T05:13:50.048Z,46.42
2019-04-22T05:16:24.431Z,43.87
2019-04-22T05:18:44.636Z,54.88
2019-04-22T05:23:53.542Z,45.88
2019-04-22T05:26:20.499Z,42.00
2019-04-22T05:28:50.057Z,43.92
2019-04-22T05:31:22.910Z,50.40
2019-04-22T05:33:56.394Z,54.53
2019-04-22T05:36:29.760Z,54.30
2019-04-22T05:39:00.088Z,50.12
2019-04-22T05:41:35.230Z,48.40
2019-04-22T05:44:08.408Z,49.18
2019-04-22T05:46:34.760Z,48.25
2019-04-22T05:49:14.898Z,49.85
2019-04-22T05:52:03.166Z,46.95
2019-04-22T05:54:32.699Z,50.23
2019-04-22T05:57:12.446Z,50.88
2019-04-22T05:59:39.455Z,46.60
2019-04-22T06:02:13.555Z,46.63
2019-04-22T06:04:45.012Z,45.95
2019-04-22T06:07:13.083Z,48.40
2019-04-22T06:09:55.375Z,45.25
2019-04-22T06:12:18.552Z,50.67
2019-04-22T06:14:54.019Z,56.95
2019-04-22T06:17:31.689Z,51.83
2019-04-22T06:20:02.756Z,63.90
2019-04-22T06:22:50.979Z,48.05
2019-04-22T06:25:17.177Z,46.13
2019-04-22T06:27:41.404Z,46.42
2019-04-22T06:30:15.421Z,47.62
2019-04-22T06:32:43.618Z,47.00
2019-04-22T06:35:23.612Z,44.70
2019-04-22T06:38:12.419Z,56.73
2019-04-22T06:40:23.664Z,85.17
2019-04-22T06:42:57.943Z,66.72
2019-04-22T06:45:24.886Z,50.45
2019-04-22T06:53:05.794Z,45.95
2019-04-22T06:55:40.207Z,41.77
2019-04-22T06:58:04.974Z,43.85
2019-04-22T07:00:48.539Z,46.48
2019-04-22T07:05:46.343Z,40.75
2019-04-22T07:08:58.067Z,45.73
2019-04-22T07:10:47.647Z,38.42
2019-04-22T07:13:23.429Z,42.85
2019-04-22T07:15:57.474Z,49.10
2019-04-22T07:18:33.882Z,43.90
2019-04-22T07:20:57.849Z,38.63
2019-04-22T07:26:18.940Z,67.75
2019-04-22T07:28:29.753Z,75.95
2019-04-22T07:31:04.022Z,75.30
2019-04-22T07:33:48.791Z,67.67
2019-04-22T07:36:30.546Z,52.30
2019-04-22T07:38:35.879Z,52.33
2019-04-22T07:41:12.451Z,40.50
2019-04-22T07:44:09.805Z,35.60
2019-04-22T07:46:18.495Z,33.53
2019-04-22T07:48:53.933Z,39.33
2019-04-22T07:51:41.075Z,24.60
2019-04-22T07:53:56.303Z,24.70
2019-04-22T07:56:24.236Z,23.05
2019-04-22T07:59:03.967Z,21.02
2019-04-22T08:01:30.586Z,21.37
2019-04-22T08:06:41.670Z,19.95
2019-04-22T08:09:13.947Z,16.48
2019-04-22T08:14:14.482Z,19.45
2019-04-22T08:16:51.312Z,16.65
2019-04-22T08:19:20.348Z,14.30
2019-04-22T08:21:50.665Z,15.43
2019-04-22T08:24:22.727Z,12.40
2019-04-22T08:26:53.071Z,13.83
2019-04-22T08:32:01.188Z,16.02
2019-04-22T08:34:29.883Z,13.53
2019-04-22T08:37:37.437Z,16.67
2019-04-22T08:39:36.775Z,14.07
2019-04-22T08:42:22.915Z,15.25
2019-04-22T08:47:21.002Z,15.08
2019-04-22T08:49:50.858Z,15.05
2019-04-22T08:52:22.310Z,17.05
2019-04-22T08:55:01.803Z,18.50
2019-04-22T08:57:40.954Z,17.35
2019-04-22T09:02:36.933Z,14.70
2019-04-22T09:05:00.182Z,15.50
2019-04-22T09:10:15.644Z,16.12
2019-04-22T09:12:51.779Z,13.58
2019-04-22T09:15:15.893Z,13.50
2019-04-22T09:17:47.804Z,15.00
2019-04-22T09:20:21.732Z,13.50
2019-04-22T09:22:48.741Z,12.13
2019-04-22T09:25:27.423Z,9.95
2019-04-22T09:28:10.676Z,10.23
2019-04-22T09:30:29.422Z,12.63
2019-04-22T09:33:06.386Z,13.45
2019-04-22T09:38:20.269Z,13.58
2019-04-22T09:40:35.059Z,15.10
2019-04-22T09:43:14.880Z,14.05
2019-04-22T09:45:43.365Z,19.00
2019-04-22T09:48:16.614Z,15.83
2019-04-22T09:53:23.943Z,23.25
2019-04-22T09:55:51.619Z,25.68
2019-04-22T09:58:26.604Z,19.60
2019-04-22T10:01:02.729Z,19.10
2019-04-22T10:03:29.346Z,20.77
2019-04-22T10:06:09.872Z,21.73
2019-04-22T10:08:40.740Z,22.05
2019-04-22T10:11:13.194Z,16.00
2019-04-22T10:13:40.600Z,16.55
2019-04-22T10:16:20.294Z,22.82
2019-04-22T10:18:46.055Z,24.50
2019-04-22T10:21:14.482Z,20.25
2019-04-22T10:23:54.216Z,20.10
2019-04-22T10:26:21.835Z,21.00
2019-04-22T10:31:34.506Z,16.87
2019-04-22T10:33:49.939Z,18.30
2019-04-22T10:36:05.819Z,16.35
2019-04-22T10:38:36.828Z,15.55
2019-04-22T10:41:16.678Z,14.25
2019-04-22T10:43:47.606Z,16.77
2019-04-22T10:46:19.865Z,14.28
2019-04-22T10:48:50.842Z,16.05
2019-04-22T10:51:22.346Z,15.28
2019-04-22T10:53:53.414Z,16.32
2019-04-22T10:56:25.164Z,17.57
2019-04-22T10:58:56.287Z,14.75
2019-04-22T11:01:27.629Z,17.15
2019-04-22T11:03:59.595Z,13.15
2019-04-22T11:06:33.699Z,16.05
2019-04-22T11:09:04.956Z,15.38
2019-04-22T11:11:45.496Z,18.35
2019-04-22T11:14:07.425Z,17.48
2019-04-22T11:16:39.491Z,18.37
2019-04-22T11:19:11.756Z,17.23
2019-04-22T11:21:43.436Z,15.03
2019-04-22T11:24:14.873Z,16.87
2019-04-22T11:26:46.981Z,17.75
2019-04-22T11:29:19.457Z,17.65
2019-04-22T11:31:50.520Z,13.25
2019-04-22T11:34:21.451Z,11.65
2019-04-22T11:36:52.685Z,14.43
2019-04-22T11:39:23.720Z,19.30
2019-04-22T11:41:55.947Z,15.43
2019-04-22T11:44:27.652Z,19.42
2019-04-22T11:46:59.144Z,16.15
2019-04-22T11:49:30.158Z,14.07
2019-04-22T11:52:01.123Z,15.08
2019-04-22T11:54:32.555Z,13.53
2019-04-22T11:57:03.515Z,14.40
2019-04-22T11:59:34.367Z,15.15
2019-04-22T12:02:06.645Z,14.43
2019-04-22T12:04:38.143Z,13.13
2019-04-22T12:07:09.088Z,17.15
2019-04-22T12:09:39.963Z,19.95
2019-04-22T12:12:11.936Z,14.47
2019-04-22T12:14:42.821Z,13.75
2019-04-22T12:17:13.937Z,14.95
2019-04-22T12:19:46.259Z,11.00
2019-04-22T12:22:17.314Z,15.08
2019-04-22T12:24:48.527Z,12.37
2019-04-22T12:27:20.445Z,14.18
2019-04-22T12:29:51.485Z,14.03
2019-04-22T12:32:23.269Z,11.20
2019-04-22T12:34:55.396Z,11.53
2019-04-22T12:37:35.212Z,10.68
2019-04-22T12:39:58.358Z,11.68
2019-04-22T12:42:29.283Z,13.38
2019-04-22T12:45:00.472Z,10.85
2019-04-22T12:47:33.581Z,11.60
2019-04-22T12:50:12.436Z,10.32
2019-04-22T12:52:43.716Z,12.53
2019-04-22T12:55:09.899Z,12.93
2019-04-22T12:57:41.018Z,10.72
2019-04-22T13:00:13.619Z,12.82
2019-04-22T13:02:45.021Z,12.40
2019-04-22T13:05:16.622Z,15.05
2019-04-22T13:07:47.467Z,15.28
2019-04-22T13:10:20.122Z,13.55
2019-04-22T13:12:51.242Z,12.90
2019-04-22T13:15:23.861Z,14.30
2019-04-22T13:18:05.776Z,14.50
2019-04-22T13:20:28.198Z,11.97
2019-04-22T13:22:59.051Z,10.80
2019-04-22T13:25:31.933Z,12.98
2019-04-22T13:28:03.022Z,10.48
2019-04-22T13:30:34.659Z,12.58
2019-04-22T13:33:07.082Z,12.60
2019-04-22T13:35:39.363Z,10.72
2019-04-22T13:38:11.104Z,12.15
2019-04-22T13:40:57.878Z,13.85
2019-04-22T13:43:16.703Z,14.58
2019-04-22T13:45:47.724Z,12.60
2019-04-22T13:51:25.831Z,14.13
2019-04-22T13:54:14.029Z,16.07
2019-04-22T13:54:14.458Z,15.03
2019-04-22T13:56:13.677Z,20.50
2019-04-22T13:58:43.135Z,16.07
2019-04-22T14:01:02.662Z,20.10
2019-04-22T14:03:35.569Z,20.62
2019-04-22T14:06:07.018Z,17.60
2019-04-22T14:08:38.010Z,16.55
2019-04-22T14:11:17.066Z,14.73
2019-04-22T14:13:41.881Z,12.68
2019-04-22T14:16:13.291Z,13.35
2019-04-22T14:18:45.967Z,14.68
2019-04-22T14:21:16.863Z,13.08
2019-04-22T14:23:48.706Z,13.15
2019-04-22T14:26:19.810Z,13.03
2019-04-22T14:28:50.672Z,10.63
2019-04-22T14:31:22.405Z,10.65
2019-04-22T14:33:56.954Z,10.20
2019-04-22T14:36:25.693Z,9.95
2019-04-22T14:38:57.790Z,10.03
2019-04-22T14:41:42.350Z,12.70
2019-04-22T14:45:06.890Z,8.85
2019-04-22T14:47:04.907Z,9.15
2019-04-22T14:49:29.433Z,8.95
2019-04-22T14:52:05.066Z,7.87
2019-04-22T14:54:22.408Z,11.22
2019-04-22T14:56:42.301Z,7.67
2019-04-22T14:59:13.421Z,5.92
2019-04-22T15:01:45.572Z,7.58
2019-04-22T15:04:17.205Z,6.05
2019-04-22T15:06:50.124Z,6.00
2019-04-22T15:09:21.728Z,5.60
2019-04-22T15:12:05.051Z,6.67
2019-04-22T15:14:25.662Z,9.50
2019-04-22T15:16:58.013Z,5.80
2019-04-22T15:19:31.648Z,5.35
2019-04-22T15:22:03.068Z,5.97
2019-04-22T15:24:34.609Z,7.37
2019-04-22T15:27:06.581Z,6.65
2019-04-22T15:29:38.974Z,5.30
2019-04-22T15:32:09.692Z,3.92
2019-04-22T15:34:41.592Z,3.87
2019-04-22T15:37:13.842Z,6.33
2019-04-22T15:39:45.704Z,6.83
2019-04-22T15:42:23.975Z,6.47
2019-04-22T15:44:48.837Z,9.28
2019-04-22T15:47:20.677Z,7.15
2019-04-22T15:49:52.177Z,5.97
2019-04-22T15:52:31.130Z,7.47
2019-04-22T15:54:56.357Z,7.65
2019-04-22T15:57:28.707Z,6.72
2019-04-22T16:00:14.687Z,7.00
2019-04-22T16:02:31.897Z,6.92
2019-04-22T16:05:02.809Z,7.15
2019-04-22T16:07:33.884Z,7.80
2019-04-22T16:10:06.170Z,6.58
2019-04-22T16:12:49.191Z,6.95
2019-04-22T16:15:11.647Z,9.30
2019-04-22T16:17:42.484Z,8.85
2019-04-22T16:20:15.071Z,7.65
2019-04-22T16:22:47.452Z,7.50
2019-04-22T16:25:19.474Z,8.28
2019-04-22T16:27:50.263Z,6.97
2019-04-22T16:30:21.609Z,9.10
2019-04-22T16:32:55.022Z,6.47
2019-04-22T16:35:26.789Z,9.33
2019-04-22T16:37:58.822Z,9.93
2019-04-22T16:40:30.527Z,7.92
2019-04-22T16:43:04.206Z,8.53
2019-04-22T16:45:33.646Z,10.08
2019-04-22T16:48:04.497Z,10.18
2019-04-22T16:50:38.269Z,6.53
2019-04-22T16:53:08.270Z,11.60
2019-04-22T16:55:39.240Z,8.23
2019-04-22T16:58:12.675Z,7.78
2019-04-22T17:00:44.774Z,10.65
2019-04-22T17:03:16.437Z,15.68
2019-04-22T17:05:49.755Z,14.90
2019-04-22T17:08:22.080Z,16.80
2019-04-22T17:10:53.619Z,13.25
2019-04-22T17:13:28.349Z,13.53
2019-04-22T17:15:59.089Z,13.05
2019-04-22T17:18:28.747Z,9.68
2019-04-22T17:21:01.168Z,13.32
2019-04-22T17:23:31.755Z,12.68
2019-04-22T17:26:02.699Z,9.95
2019-04-22T17:28:33.498Z,8.03
2019-04-22T17:31:04.661Z,6.33
2019-04-22T17:33:37.003Z,8.50
2019-04-22T17:36:09.324Z,9.93
2019-04-22T17:38:50.414Z,10.23
2019-04-22T17:41:24.700Z,7.70
2019-04-22T17:44:28.635Z,7.55
2019-04-22T17:46:33.698Z,10.30
2019-04-22T17:49:12.246Z,9.95
2019-04-22T17:51:46.621Z,7.90
2019-04-22T17:54:19.187Z,7.95
2019-04-22T17:56:48.585Z,6.45
2019-04-22T17:59:20.416Z,7.50
2019-04-22T18:02:02.815Z,10.65
2019-04-22T18:04:20.054Z,7.67
2019-04-22T18:07:19.196Z,11.85
2019-04-22T18:10:10.764Z,11.38
2019-04-22T18:12:27.656Z,9.05
2019-04-22T18:14:52.882Z,9.98
2019-04-22T18:17:25.702Z,6.95
2019-04-22T18:19:51.299Z,9.38
2019-04-22T18:22:20.319Z,8.60
2019-04-22T18:24:52.878Z,6.67
2019-04-22T18:29:56.758Z,10.23
2019-04-22T18:32:25.690Z,10.95
2019-04-22T18:35:00.423Z,9.48
2019-04-22T18:37:40.985Z,9.58
2019-04-22T18:40:08.267Z,7.30
2019-04-22T18:42:48.671Z,10.40
2019-04-22T18:45:34.448Z,9.50
2019-04-22T18:47:44.311Z,10.00
2019-04-22T18:50:24.686Z,9.90
2019-04-22T18:52:59.245Z,12.47
2019-04-22T18:55:22.042Z,8.08
2019-04-22T18:57:52.112Z,9.63
2019-04-22T19:00:14.173Z,8.83
2019-04-22T19:02:54.036Z,9.00
2019-04-22T19:05:30.315Z,10.90
2019-04-22T19:08:18.273Z,8.83
2019-04-22T19:10:56.188Z,8.78
2019-04-22T19:15:54.078Z,8.30
2019-04-22T19:18:29.717Z,8.75
2019-04-22T19:20:59.605Z,7.47
2019-04-22T19:23:28.455Z,9.75
2019-04-22T19:25:57.146Z,8.05
2019-04-22T19:28:36.073Z,10.15
2019-04-22T19:33:55.030Z,10.82
2019-04-22T19:36:26.372Z,8.50
2019-04-22T19:39:01.259Z,8.63
2019-04-22T19:41:37.123Z,8.43
2019-04-22T19:44:10.560Z,10.85
2019-04-22T19:46:34.580Z,8.50
2019-04-22T19:49:18.379Z,8.43
2019-04-22T19:51:55.864Z,9.30
2019-04-22T19:54:18.399Z,8.90
2019-04-22T19:56:42.788Z,9.55
2019-04-22T19:59:14.951Z,8.08
2019-04-22T20:01:58.667Z,8.33
2019-04-22T20:04:37.781Z,6.90
2019-04-22T20:07:05.942Z,10.30
2019-04-22T20:09:46.751Z,8.88
2019-04-22T20:12:11.720Z,9.13
2019-04-22T20:14:48.076Z,9.40
2019-04-22T20:17:25.920Z,11.25
2019-04-22T20:19:55.343Z,9.95
2019-04-22T20:22:28.301Z,8.45
2019-04-22T20:24:47.498Z,9.60
2019-04-22T20:27:31.789Z,8.10
2019-04-22T20:30:05.251Z,7.53
2019-04-22T20:32:32.701Z,8.85
2019-04-22T20:35:07.969Z,8.60
2019-04-22T20:37:47.918Z,11.28
2019-04-22T20:40:16.919Z,10.50
2019-04-22T20:42:57.012Z,10.98
2019-04-22T20:45:29.429Z,14.28
2019-04-22T20:47:46.483Z,13.55
2019-04-22T20:50:31.521Z,20.75
2019-04-22T20:53:07.180Z,10.15
2019-04-22T20:55:25.396Z,12.45
2019-04-22T20:58:13.416Z,12.93
2019-04-22T21:00:31.189Z,8.43
2019-04-22T21:03:03.916Z,9.78
2019-04-22T21:05:38.241Z,11.57
2019-04-22T21:08:19.020Z,13.78
2019-04-22T21:10:45.091Z,12.68
2019-04-22T21:13:18.118Z,13.28
2019-04-22T21:16:00.791Z,12.05
2019-04-22T21:18:25.337Z,9.95
2019-04-22T21:21:03.936Z,11.28
2019-04-22T21:23:26.458Z,12.28
2019-04-22T21:26:11.101Z,9.75
2019-04-22T21:28:38.741Z,9.13
2019-04-22T21:31:14.828Z,10.50
2019-04-22T21:33:46.546Z,10.88
2019-04-22T21:36:25.428Z,11.40
2019-04-22T21:38:51.265Z,10.15
2019-04-22T21:41:23.283Z,9.88
2019-04-22T21:43:52.608Z,10.03
2019-04-22T21:46:23.190Z,13.45
2019-04-22T21:48:59.802Z,12.33
2019-04-22T21:51:39.430Z,11.05
2019-04-22T21:54:09.665Z,11.57
2019-04-22T21:57:05.693Z,9.93
2019-04-22T21:59:15.744Z,11.53
2019-04-22T22:01:52.387Z,12.10
2019-04-22T22:04:17.618Z,11.83
2019-04-22T22:06:40.293Z,11.45
2019-04-22T22:09:20.386Z,14.83
2019-04-22T22:11:49.121Z,9.58
2019-04-22T22:14:22.461Z,8.35
2019-04-22T22:16:50.844Z,11.15
2019-04-22T22:19:28.722Z,9.38
2019-04-22T22:22:07.422Z,9.08
2019-04-22T22:24:33.946Z,9.48
2019-04-22T22:27:04.517Z,8.78
2019-04-22T22:30:05.573Z,11.80
